Airfield :
LOGIN :

Register | Disclaimer

   EN    FR    IT 

 










Legend :    VFR   Marginal VFR   IFR   Intensive IFR   Very Intensive IFR
Visi :
Ceiling :
>= 8 km
>= 3000ft
5 to 8 km
1000 to 3000 ft
1500m to 5 km
500 to 1000 ft
800 to 1500m
200 to 500 ft
< 800m
< 200 ft
Symbols :   Thunderstorms  Fog  Heavy snow  Heavy precipitations  Wind > 20 kt
SIGMETs :     Misc.  Thunderstorms  Icing  Turbulence  Mountain Waves  Volcanic Ashes






- Airport Elevation : 52 ft
- IATA code : IOM


EGNS - Isle of Man

CURRENT METAR :
  • 280650Z 22005KT 180V250 9999 FEW025 09/05 Q1002 TEMPO 7000 SHRA BKN014

EXPIRED METARs :
  • 280620Z 20008KT 9999 SCT025 09/06 Q1001 TEMPO 7000 SHRA BKN014
  • 280550Z 20010KT 9999 SCT025 10/05 Q1001 TEMPO 7000 SHRA BKN014
  • 280520Z 17008KT 130V200 9999 SCT025 09/07 Q1001
  • 280450Z 16014KT 9999 FEW020 BKN030 09/06 Q1001

TAF TAF EGNS
Valid from the 28 at 06:00 until the 28 at 15:00 UTC


280500Z 2806/2815 18010KT 9999 FEW018 SCT025
PROB40
TEMPO 2806/2813 7000 SHRA BKN014
PROB30
TEMPO 2806/2813 22012G30KT 3000 +SHRA BKN008TCU
BECMG 2812/2815 34005KT



MET'MAP, your aeronautical weather chart ! - Copyright ORBIFLY December 2007 - Disclaimer

ORBIFLY MET'MAP TEAM :

Programming & Development : Alexandra Zaïnal
Original concept : Baudouin d'Aumeries
Technical & hardware support : Manuel Goepfert
Assistance : Marc-Olivier Méhu




SOURCES & CREDITS :

   NOAA